Beaver Cove, Maine
Current Conditions -  °F | °C
As of 12:53 PM on Saturday 25 Oct 2014 (Local Time) from KMLT Reporting Station
Overcast Overcast  
Wind Chill: 51°   Ceiling: 4800
Heat Index: 51°   Visibility: 10mi
Dew Point: 35°   Wind: 9mph
Humidity: 54%   Direction: 90°E
Pressure: 29.59"   Gusts: NA
Location:  45.7313°N, 69.33°W
Report Text: KMLT 251653Z AUTO 09008KT 10SM OVC048 11/02 A2959 RMK AO2 SLP027 T01060017
Loading
Personal Weather Stations






























Interactive Weather Map
Tropical Storm Tracking
New forecast layout! Learn more

10-Day Weather Forecast

Advertisements
Track Severe Weather on mobile